Time;durP1;ratioP1;P1;durP2;ratioP2;P2;SDS_P1;SDS_P2;PMS_P1;PMS_P2;Temp;Humidity;BMP_temperature;BMP_pressure;BME280_temperature;BME280_humidity;BME280_pressure;Samples;Min_cycle;Max_cycle;Signal;HPM_P1;HPM_P2
2024/01/15 00:02:41;;;;;;;3.07;1.77;;;;;;;;;;6311921;28;20020;-83
2024/01/15 00:05:41;;;;;;;3.27;1.47;;;;;;;;;;6302435;28;20024;-82
2024/01/15 00:08:41;;;;;;;3.27;1.97;;;;;;;;;;6318896;28;20060;-82
2024/01/15 00:11:42;;;;;;;2.47;1.60;;;;;;;;;;6305957;28;20020;-83
2024/01/15 00:14:42;;;;;;;3.53;1.90;;;;;;;;;;6313381;28;20028;-82
2024/01/15 00:17:43;;;;;;;3.03;1.50;;;;;;;;;;6318742;28;20519;-83
2024/01/15 00:20:43;;;;;;;3.60;1.80;;;;;;;;;;6312696;28;20048;-83
2024/01/15 00:23:46;;;;;;;2.27;1.70;;;;;;;;;;6306729;28;20024;-83
2024/01/15 00:26:46;;;;;;;2.72;1.80;;;;;;;;;;6311172;28;20042;-82
2024/01/15 00:29:47;;;;;;;2.53;1.70;;;;;;;;;;6306113;28;20107;-83
2024/01/15 00:32:47;;;;;;;2.57;1.60;;;;;;;;;;6319357;28;20186;-82
2024/01/15 00:35:47;;;;;;;2.73;1.70;;;;;;;;;;6319576;28;20027;-77
2024/01/15 00:38:48;;;;;;;2.97;1.63;;;;;;;;;;6317488;28;20021;-77
2024/01/15 00:41:48;;;;;;;3.37;1.73;;;;;;;;;;6304341;28;20047;-77
2024/01/15 00:44:48;;;;;;;2.77;1.67;;;;;;;;;;6307024;28;20032;-77
2024/01/15 00:47:48;;;;;;;2.83;1.70;;;;;;;;;;6308037;28;20029;-77
2024/01/15 00:50:49;;;;;;;2.73;1.83;;;;;;;;;;6300448;28;20428;-80
2024/01/15 00:53:49;;;;;;;2.57;1.53;;;;;;;;;;6323005;28;20048;-77
2024/01/15 00:56:49;;;;;;;2.40;1.40;;;;;;;;;;6317262;28;20389;-77
2024/01/15 00:59:50;;;;;;;5.47;2.20;;;;;;;;;;6308808;28;20480;-77
2024/01/15 01:02:50;;;;;;;4.47;2.20;;;;;;;;;;6311873;28;20020;-77
2024/01/15 01:05:50;;;;;;;3.83;1.63;;;;;;;;;;6291304;28;20093;-78
2024/01/15 01:08:50;;;;;;;2.47;1.67;;;;;;;;;;6311908;28;20024;-78
2024/01/15 01:11:51;;;;;;;3.00;1.43;;;;;;;;;;6320569;28;20024;-77
2024/01/15 01:14:51;;;;;;;1.93;1.40;;;;;;;;;;6320640;28;20092;-78
2024/01/15 01:17:51;;;;;;;2.13;1.27;;;;;;;;;;6318177;28;20048;-77
2024/01/15 01:20:51;;;;;;;1.80;1.20;;;;;;;;;;6312548;28;20074;-77
2024/01/15 01:23:51;;;;;;;2.47;1.37;;;;;;;;;;6297214;28;20476;-77
2024/01/15 01:26:52;;;;;;;2.97;1.80;;;;;;;;;;6307919;28;20407;-77
2024/01/15 01:29:52;;;;;;;2.63;1.60;;;;;;;;;;6306609;28;20052;-77
2024/01/15 01:32:53;;;;;;;2.13;1.40;;;;;;;;;;6315453;28;20072;-77
2024/01/15 01:35:53;;;;;;;1.40;1.00;;;;;;;;;;6322738;28;20104;-78
2024/01/15 01:38:53;;;;;;;2.20;1.23;;;;;;;;;;6314984;28;20017;-77
2024/01/15 01:41:53;;;;;;;1.70;1.03;;;;;;;;;;6298651;28;20457;-78
2024/01/15 01:44:54;;;;;;;3.50;1.40;;;;;;;;;;6306358;28;20081;-81
2024/01/15 01:47:54;;;;;;;1.53;1.13;;;;;;;;;;6313810;28;20020;-82
2024/01/15 01:50:55;;;;;;;2.17;1.47;;;;;;;;;;6318775;28;20016;-82
2024/01/15 01:53:56;;;;;;;2.00;1.15;;;;;;;;;;6299404;28;20028;-82
2024/01/15 01:56:56;;;;;;;1.87;1.40;;;;;;;;;;6307342;28;20392;-82
2024/01/15 01:59:57;;;;;;;3.75;1.67;;;;;;;;;;6317795;28;20113;-82
2024/01/15 02:02:58;;;;;;;2.47;1.50;;;;;;;;;;6295451;28;20028;-81
2024/01/15 02:05:59;;;;;;;1.83;1.60;;;;;;;;;;6315121;28;20032;-81
2024/01/15 02:09:00;;;;;;;2.90;1.50;;;;;;;;;;6314709;28;20028;-81
2024/01/15 02:12:00;;;;;;;3.28;1.77;;;;;;;;;;6314966;28;20028;-81
2024/01/15 02:15:01;;;;;;;2.30;1.43;;;;;;;;;;6320610;28;20388;-81
2024/01/15 02:18:02;;;;;;;4.03;2.10;;;;;;;;;;6309391;28;20103;-81
2024/01/15 02:21:02;;;;;;;3.33;2.10;;;;;;;;;;6322341;28;20482;-81
2024/01/15 02:24:03;;;;;;;3.57;2.07;;;;;;;;;;6317114;28;20085;-81
2024/01/15 02:27:03;;;;;;;4.50;2.27;;;;;;;;;;6296128;28;20020;-81
2024/01/15 02:30:04;;;;;;;4.40;2.53;;;;;;;;;;6288427;28;20037;-81
2024/01/15 02:33:05;;;;;;;3.95;2.17;;;;;;;;;;6311974;28;20497;-82
2024/01/15 02:36:05;;;;;;;3.97;2.20;;;;;;;;;;6298197;28;20115;-81
2024/01/15 02:39:06;;;;;;;4.60;2.50;;;;;;;;;;6313923;28;20353;-81
2024/01/15 02:42:06;;;;;;;4.83;2.80;;;;;;;;;;6309156;28;20030;-81
2024/01/15 02:45:06;;;;;;;5.63;2.70;;;;;;;;;;6280715;28;20170;-81
2024/01/15 02:48:06;;;;;;;5.70;2.43;;;;;;;;;;6311074;28;20023;-81
2024/01/15 02:51:07;;;;;;;4.87;2.33;;;;;;;;;;6307666;28;20391;-81
2024/01/15 02:54:07;;;;;;;3.77;2.00;;;;;;;;;;6310812;28;20055;-77
2024/01/15 02:57:07;;;;;;;3.87;2.20;;;;;;;;;;6304895;28;20055;-77
2024/01/15 03:00:08;;;;;;;4.90;2.20;;;;;;;;;;6320685;28;20027;-77
2024/01/15 03:03:08;;;;;;;3.87;2.27;;;;;;;;;;6312136;28;20024;-78
2024/01/15 03:06:09;;;;;;;3.80;2.03;;;;;;;;;;6308857;28;20561;-77
2024/01/15 03:09:10;;;;;;;2.72;2.10;;;;;;;;;;6301713;28;20024;-77
2024/01/15 03:12:11;;;;;;;4.03;2.33;;;;;;;;;;6317159;28;20027;-77
2024/01/15 03:15:11;;;;;;;6.03;2.30;;;;;;;;;;6289339;28;20475;-77
2024/01/15 03:18:11;;;;;;;3.20;2.07;;;;;;;;;;6300323;28;20065;-78
2024/01/15 03:21:12;;;;;;;4.67;2.27;;;;;;;;;;6287402;28;20495;-77
2024/01/15 03:24:12;;;;;;;2.93;2.00;;;;;;;;;;6304917;28;20024;-76
2024/01/15 03:27:12;;;;;;;5.43;2.40;;;;;;;;;;6315397;28;20031;-77
2024/01/15 03:30:13;;;;;;;4.47;2.43;;;;;;;;;;6304958;28;20115;-77
2024/01/15 03:33:13;;;;;;;3.67;2.47;;;;;;;;;;6309016;28;20127;-78
2024/01/15 03:36:14;;;;;;;4.20;2.50;;;;;;;;;;6320077;28;20458;-79
2024/01/15 03:39:14;;;;;;;4.13;2.57;;;;;;;;;;6302939;28;20031;-77
2024/01/15 03:42:14;;;;;;;5.17;2.83;;;;;;;;;;6294316;28;20468;-77
2024/01/15 03:45:14;;;;;;;4.30;2.50;;;;;;;;;;6312614;28;20098;-77
2024/01/15 03:48:15;;;;;;;5.27;2.90;;;;;;;;;;6315333;28;20036;-78
2024/01/15 03:51:17;;;;;;;4.50;2.57;;;;;;;;;;6313917;28;20024;-77
2024/01/15 03:54:17;;;;;;;4.07;2.78;;;;;;;;;;6311880;28;20020;-77
2024/01/15 03:57:17;;;;;;;5.73;2.97;;;;;;;;;;6313103;28;20077;-76
2024/01/15 04:00:18;;;;;;;5.77;3.13;;;;;;;;;;6304339;28;20017;-77
2024/01/15 04:03:18;;;;;;;4.53;2.87;;;;;;;;;;6302321;28;20491;-77
2024/01/15 04:06:18;;;;;;;5.07;2.90;;;;;;;;;;6293917;28;20035;-77
2024/01/15 04:09:19;;;;;;;4.27;2.83;;;;;;;;;;6297331;28;20012;-76
2024/01/15 04:12:19;;;;;;;6.10;2.80;;;;;;;;;;6290443;28;20425;-77
2024/01/15 04:15:19;;;;;;;5.50;2.57;;;;;;;;;;6308404;28;20449;-79
2024/01/15 04:18:19;;;;;;;4.47;2.63;;;;;;;;;;6316680;28;20024;-79
2024/01/15 04:21:20;;;;;;;5.57;2.73;;;;;;;;;;6323750;28;20020;-79
2024/01/15 04:24:20;;;;;;;4.37;2.57;;;;;;;;;;6291036;28;20044;-79
2024/01/15 04:27:20;;;;;;;4.20;2.60;;;;;;;;;;6308863;28;20050;-79
2024/01/15 04:30:20;;;;;;;4.77;2.63;;;;;;;;;;6323838;28;20023;-79
2024/01/15 04:33:21;;;;;;;4.30;2.70;;;;;;;;;;6314721;28;20044;-79
2024/01/15 04:36:21;;;;;;;3.40;2.23;;;;;;;;;;6317703;28;20082;-79
2024/01/15 04:39:22;;;;;;;4.10;2.47;;;;;;;;;;6314157;28;20048;-80
2024/01/15 04:42:22;;;;;;;4.40;2.37;;;;;;;;;;6314461;28;20027;-79
2024/01/15 04:45:28;;;;;;;4.73;3.03;;;;;;;;;;6308720;28;20036;-79
2024/01/15 04:48:28;;;;;;;5.15;2.83;;;;;;;;;;6298878;28;20391;-79
2024/01/15 04:51:28;;;;;;;4.23;2.67;;;;;;;;;;6308396;28;20016;-79
2024/01/15 04:54:28;;;;;;;5.60;2.67;;;;;;;;;;6296159;28;20494;-79
2024/01/15 04:57:29;;;;;;;3.87;2.80;;;;;;;;;;6311417;28;20475;-79
2024/01/15 05:00:29;;;;;;;4.47;2.93;;;;;;;;;;6308103;28;20012;-79
2024/01/15 05:03:29;;;;;;;6.73;3.27;;;;;;;;;;6315728;28;20020;-79
2024/01/15 05:06:29;;;;;;;5.53;3.07;;;;;;;;;;6310788;28;20350;-79
2024/01/15 05:09:30;;;;;;;4.37;2.77;;;;;;;;;;6315138;28;20095;-79
2024/01/15 05:12:30;;;;;;;6.33;3.60;;;;;;;;;;6321231;28;20073;-79
2024/01/15 05:15:30;;;;;;;6.17;3.17;;;;;;;;;;6314637;28;20016;-79
2024/01/15 05:18:31;;;;;;;4.60;3.03;;;;;;;;;;6314771;28;20107;-80
2024/01/15 05:21:31;;;;;;;6.17;3.13;;;;;;;;;;6313986;28;20020;-79
2024/01/15 05:24:31;;;;;;;4.07;2.57;;;;;;;;;;6312710;28;20119;-77
2024/01/15 05:27:31;;;;;;;4.63;2.67;;;;;;;;;;6307651;28;20095;-77
2024/01/15 05:30:31;;;;;;;5.37;2.80;;;;;;;;;;6311190;28;20050;-77
2024/01/15 05:33:32;;;;;;;5.30;2.43;;;;;;;;;;6308197;28;20052;-77
2024/01/15 05:36:32;;;;;;;4.43;3.00;;;;;;;;;;6313228;28;20020;-77
2024/01/15 05:39:32;;;;;;;4.37;2.73;;;;;;;;;;6308621;28;20059;-77
2024/01/15 05:42:32;;;;;;;5.17;2.93;;;;;;;;;;6310610;28;20054;-77
2024/01/15 05:45:34;;;;;;;4.57;3.30;;;;;;;;;;6303724;28;20033;-77
2024/01/15 05:48:34;;;;;;;5.57;3.35;;;;;;;;;;6304684;28;20029;-77
2024/01/15 05:51:34;;;;;;;5.57;2.93;;;;;;;;;;6307739;28;20039;-77
2024/01/15 05:54:35;;;;;;;4.63;3.00;;;;;;;;;;6311330;28;20024;-77
2024/01/15 05:57:35;;;;;;;4.23;2.67;;;;;;;;;;6323514;28;20031;-77
2024/01/15 06:00:38;;;;;;;3.80;2.30;;;;;;;;;;6294310;28;20032;-76
2024/01/15 06:03:38;;;;;;;3.15;2.00;;;;;;;;;;6304882;28;20020;-77
2024/01/15 06:06:38;;;;;;;3.90;2.47;;;;;;;;;;6309680;28;20141;-76
2024/01/15 06:09:38;;;;;;;3.47;2.20;;;;;;;;;;6303660;28;20107;-77
2024/01/15 06:12:39;;;;;;;4.17;2.03;;;;;;;;;;6314551;28;20028;-76
2024/01/15 06:15:39;;;;;;;2.93;2.27;;;;;;;;;;6316131;28;20020;-77
2024/01/15 06:18:39;;;;;;;3.37;2.13;;;;;;;;;;6306853;28;20031;-77
2024/01/15 06:21:40;;;;;;;4.63;2.57;;;;;;;;;;6320281;28;20028;-77
2024/01/15 06:24:40;;;;;;;3.33;2.07;;;;;;;;;;6314329;28;20029;-76
2024/01/15 06:27:40;;;;;;;4.93;2.40;;;;;;;;;;6299272;28;20395;-76
2024/01/15 06:30:40;;;;;;;5.30;2.47;;;;;;;;;;6310130;28;20527;-78
2024/01/15 06:33:41;;;;;;;3.53;2.30;;;;;;;;;;6310986;28;20109;-78
2024/01/15 06:36:41;;;;;;;5.17;2.63;;;;;;;;;;6315097;28;20032;-80
2024/01/15 06:39:41;;;;;;;5.53;3.17;;;;;;;;;;6320162;28;20020;-80
2024/01/15 06:42:41;;;;;;;5.80;3.67;;;;;;;;;;6307376;28;20457;-78
2024/01/15 06:45:42;;;;;;;5.90;3.00;;;;;;;;;;6314029;28;20151;-78
2024/01/15 06:48:42;;;;;;;4.30;2.50;;;;;;;;;;6309046;28;20103;-78
2024/01/15 06:51:42;;;;;;;4.13;2.50;;;;;;;;;;6322084;28;20453;-78
2024/01/15 06:54:43;;;;;;;4.13;2.57;;;;;;;;;;6308972;28;20024;-79
2024/01/15 06:57:43;;;;;;;5.90;2.87;;;;;;;;;;6316866;28;20012;-78
2024/01/15 07:00:43;;;;;;;5.23;2.50;;;;;;;;;;6321149;28;20024;-78
2024/01/15 07:03:44;;;;;;;4.37;2.67;;;;;;;;;;6292444;28;20380;-78
2024/01/15 07:06:44;;;;;;;5.33;2.53;;;;;;;;;;6302325;28;20469;-78
2024/01/15 07:09:44;;;;;;;4.90;2.53;;;;;;;;;;6311421;28;20501;-78
2024/01/15 07:12:45;;;;;;;4.20;2.27;;;;;;;;;;6313869;28;20031;-78
2024/01/15 07:15:45;;;;;;;3.37;1.87;;;;;;;;;;6312504;28;20041;-78
2024/01/15 07:18:45;;;;;;;6.13;2.20;;;;;;;;;;6300818;28;20036;-77
2024/01/15 07:21:45;;;;;;;3.73;2.20;;;;;;;;;;6313065;28;20016;-77
2024/01/15 07:24:46;;;;;;;3.03;2.03;;;;;;;;;;6311534;28;20055;-78
2024/01/15 07:27:46;;;;;;;3.87;2.20;;;;;;;;;;6313979;28;20031;-78
2024/01/15 07:30:47;;;;;;;3.30;1.88;;;;;;;;;;6312788;28;20024;-77
2024/01/15 07:33:47;;;;;;;4.00;2.07;;;;;;;;;;6303380;28;20075;-78
2024/01/15 07:36:47;;;;;;;5.00;1.60;;;;;;;;;;6302789;28;20047;-78
2024/01/15 07:39:47;;;;;;;3.07;1.97;;;;;;;;;;6319634;28;20472;-78
2024/01/15 07:42:48;;;;;;;3.10;1.97;;;;;;;;;;6312926;28;20478;-77
2024/01/15 07:45:48;;;;;;;3.00;2.17;;;;;;;;;;6320693;28;20039;-78
2024/01/15 07:48:51;;;;;;;3.20;2.13;;;;;;;;;;6302989;28;20028;-78
2024/01/15 07:51:51;;;;;;;3.70;2.00;;;;;;;;;;6308112;28;20048;-78
2024/01/15 07:54:51;;;;;;;3.90;2.20;;;;;;;;;;6319313;28;20024;-81
2024/01/15 07:57:53;;;;;;;3.87;2.13;;;;;;;;;;6304370;28;20103;-81
2024/01/15 08:00:53;;;;;;;3.95;2.10;;;;;;;;;;6303206;28;20032;-80
2024/01/15 08:03:55;;;;;;;3.37;2.07;;;;;;;;;;6311880;28;20012;-81
2024/01/15 08:06:56;;;;;;;3.67;2.05;;;;;;;;;;6297359;28;20053;-81
2024/01/15 08:09:56;;;;;;;;;;;;;;;;;;6310038;28;20024;-79
2024/01/15 08:12:57;;;;;;;2.80;1.70;;;;;;;;;;6287747;28;20099;-80
2024/01/15 08:15:57;;;;;;;4.37;1.73;;;;;;;;;;6305233;28;20031;-79
2024/01/15 08:18:57;;;;;;;3.57;2.00;;;;;;;;;;6289567;28;20023;-79
2024/01/15 08:21:57;;;;;;;2.90;1.70;;;;;;;;;;6316361;28;20021;-79
2024/01/15 08:24:58;;;;;;;2.07;1.57;;;;;;;;;;6311409;28;20021;-80
2024/01/15 08:27:58;;;;;;;3.10;1.67;;;;;;;;;;6313860;28;20029;-80
2024/01/15 08:30:58;;;;;;;4.27;2.57;;;;;;;;;;6313198;28;20024;-80
2024/01/15 08:33:59;;;;;;;3.67;2.37;;;;;;;;;;6315176;28;20036;-80
2024/01/15 08:36:59;;;;;;;3.57;1.90;;;;;;;;;;6309345;28;20016;-80
2024/01/15 08:40:00;;;;;;;2.93;1.83;;;;;;;;;;6301445;28;20047;-80
2024/01/15 08:43:00;;;;;;;2.70;1.60;;;;;;;;;;6313925;28;20047;-83
2024/01/15 08:46:02;;;;;;;2.20;1.40;;;;;;;;;;6316135;28;20017;-83
2024/01/15 08:49:03;;;;;;;2.07;1.33;;;;;;;;;;6311518;28;20104;-83
2024/01/15 08:52:03;;;;;;;2.17;1.43;;;;;;;;;;6299715;28;20047;-82
2024/01/15 08:55:04;;;;;;;1.63;1.40;;;;;;;;;;6316991;28;20102;-82
2024/01/15 08:58:06;;;;;;;2.60;1.67;;;;;;;;;;6319389;28;20381;-83
2024/01/15 09:01:06;;;;;;;2.47;1.63;;;;;;;;;;6313496;28;20028;-83
2024/01/15 09:04:06;;;;;;;1.67;1.30;;;;;;;;;;6321150;28;20059;-84
2024/01/15 09:07:09;;;;;;;2.23;1.33;;;;;;;;;;6319953;28;20064;-84
2024/01/15 09:10:10;;;;;;;2.88;1.42;;;;;;;;;;6309193;28;20020;-84
2024/01/15 09:13:10;;;;;;;2.53;1.50;;;;;;;;;;6308192;28;20035;-84
2024/01/15 09:16:10;;;;;;;2.37;1.40;;;;;;;;;;6316004;28;20017;-84
2024/01/15 09:19:10;;;;;;;1.63;1.13;;;;;;;;;;6314891;28;20021;-86
2024/01/15 09:22:12;;;;;;;2.20;1.40;;;;;;;;;;6317200;28;20089;-82
2024/01/15 09:25:12;;;;;;;2.50;1.25;;;;;;;;;;6311234;28;20032;-85
2024/01/15 09:28:13;;;;;;;2.10;1.13;;;;;;;;;;6314199;28;20019;-87
2024/01/15 09:31:13;;;;;;;1.73;1.20;;;;;;;;;;6312459;28;20449;-86
2024/01/15 09:34:14;;;;;;;1.97;1.30;;;;;;;;;;6345455;27;20082;-89
2024/01/15 09:37:14;;;;;;;1.67;1.13;;;;;;;;;;6354962;27;20059;-86
2024/01/15 09:40:15;;;;;;;2.20;1.60;;;;;;;;;;6343813;27;20092;-89
2024/01/15 09:43:16;;;;;;;1.90;1.10;;;;;;;;;;6359417;27;20023;-85
2024/01/15 09:46:17;;;;;;;2.65;1.75;;;;;;;;;;6348505;27;20496;-87
2024/01/15 09:49:18;;;;;;;1.42;1.33;;;;;;;;;;6366344;27;20074;-87
2024/01/15 09:52:19;;;;;;;1.30;1.00;;;;;;;;;;6365613;27;20023;-87
2024/01/15 09:55:19;;;;;;;2.08;1.30;;;;;;;;;;6339459;27;20425;-88
2024/01/15 09:58:20;;;;;;;2.27;1.17;;;;;;;;;;6368555;27;20023;-88
2024/01/15 10:01:21;;;;;;;2.07;1.33;;;;;;;;;;6340752;27;20019;-88
2024/01/15 10:04:21;;;;;;;2.43;1.43;;;;;;;;;;6353733;27;20031;-78
2024/01/15 10:07:22;;;;;;;1.77;1.23;;;;;;;;;;6369461;27;20499;-78
2024/01/15 10:10:22;;;;;;;1.80;1.10;;;;;;;;;;6366347;27;20062;-78
2024/01/15 10:13:22;;;;;;;2.33;1.30;;;;;;;;;;6366874;27;20054;-78
2024/01/15 10:16:23;;;;;;;2.90;1.83;;;;;;;;;;6357385;27;20051;-78
2024/01/15 10:19:23;;;;;;;2.70;1.90;;;;;;;;;;6353691;27;20062;-78
2024/01/15 10:22:23;;;;;;;1.77;1.60;;;;;;;;;;6359932;27;20107;-80
2024/01/15 10:25:25;;;;;;;1.60;1.40;;;;;;;;;;6369007;27;20023;-78
2024/01/15 10:28:26;;;;;;;2.75;1.50;;;;;;;;;;6359631;27;20023;-77
2024/01/15 10:31:27;;;;;;;1.35;1.13;;;;;;;;;;6364318;27;20353;-78
2024/01/15 10:34:27;;;;;;;1.53;1.23;;;;;;;;;;6361404;27;20127;-77
2024/01/15 10:37:27;;;;;;;1.80;1.10;;;;;;;;;;6356671;27;20019;-77
2024/01/15 10:40:28;;;;;;;1.60;1.10;;;;;;;;;;6367943;27;20047;-77
2024/01/15 10:43:28;;;;;;;1.40;1.08;;;;;;;;;;6349975;27;20023;-77
2024/01/15 10:46:29;;;;;;;1.30;1.00;;;;;;;;;;6356322;27;20484;-78
2024/01/15 10:49:30;;;;;;;1.75;1.35;;;;;;;;;;6357378;27;20441;-77
2024/01/15 10:52:31;;;;;;;1.90;1.20;;;;;;;;;;6362610;27;20015;-77
2024/01/15 10:55:34;;;;;;;1.90;1.10;;;;;;;;;;6358680;27;20019;-77
2024/01/15 10:58:36;;;;;;;1.55;1.00;;;;;;;;;;6360250;27;20019;-76
2024/01/15 11:01:36;;;;;;;1.67;1.13;;;;;;;;;;6359605;27;20110;-78
2024/01/15 11:04:37;;;;;;;1.37;1.10;;;;;;;;;;6352697;27;20039;-78
2024/01/15 11:07:39;;;;;;;1.63;0.83;;;;;;;;;;6362581;27;20042;-77
2024/01/15 11:10:41;;;;;;;1.75;1.20;;;;;;;;;;6361406;27;20039;-78
2024/01/15 11:13:43;;;;;;;2.03;1.05;;;;;;;;;;6358589;27;20111;-78
2024/01/15 11:16:53;;;;;;;1.48;1.10;;;;;;;;;;6369495;27;20022;-79
2024/01/15 11:19:54;;;;;;;1.70;1.08;;;;;;;;;;6363165;27;20016;-77
2024/01/15 11:22:57;;;;;;;1.60;1.10;;;;;;;;;;6354332;27;20030;-78
2024/01/15 11:25:57;;;;;;;1.63;1.20;;;;;;;;;;6370442;27;20490;-78
2024/01/15 11:29:02;;;;;;;2.17;1.27;;;;;;;;;;6370680;27;20023;-78
2024/01/15 11:32:04;;;;;;;2.28;1.17;;;;;;;;;;6339892;27;20027;-76
2024/01/15 11:35:06;;;;;;;;;;;;;;;;;;6338194;27;20648;-77
2024/01/15 11:38:08;;;;;;;1.15;0.80;;;;;;;;;;6339728;28;19919;-77
2024/01/15 11:41:17;;;;;;;2.03;1.10;;;;;;;;;;6340647;28;20488;-76
2024/01/15 11:44:18;;;;;;;1.60;1.00;;;;;;;;;;6319595;28;20060;-76
2024/01/15 11:47:29;;;;;;;1.65;1.20;;;;;;;;;;6343411;28;20028;-76
2024/01/15 11:50:30;;;;;;;1.48;1.25;;;;;;;;;;6320850;28;20024;-75
2024/01/15 11:53:43;;;;;;;1.25;1.02;;;;;;;;;;6316470;28;20115;-76
2024/01/15 11:56:43;;;;;;;1.38;1.00;;;;;;;;;;6339207;28;20075;-76
2024/01/15 11:59:44;;;;;;;1.90;0.97;;;;;;;;;;6334289;28;20038;-76
2024/01/15 12:02:45;;;;;;;1.20;0.90;;;;;;;;;;6339091;28;20069;-76
2024/01/15 12:05:45;;;;;;;1.88;0.98;;;;;;;;;;6335651;28;20037;-76
2024/01/15 12:08:45;;;;;;;1.47;1.03;;;;;;;;;;6335209;28;20033;-77
2024/01/15 12:11:49;;;;;;;1.30;1.03;;;;;;;;;;6323546;28;20031;-77
2024/01/15 12:14:49;;;;;;;1.60;0.95;;;;;;;;;;6339554;28;20384;-75
2024/01/15 12:17:50;;;;;;;2.23;1.27;;;;;;;;;;6329474;28;20054;-76
2024/01/15 12:20:54;;;;;;;1.83;1.23;;;;;;;;;;6336539;28;20482;-75
2024/01/15 12:23:55;;;;;;;4.00;1.20;;;;;;;;;;6340159;28;20038;-82
2024/01/15 12:26:55;;;;;;;;;;;;;;;;;;6340758;28;20047;-75
2024/01/15 12:29:56;;;;;;;2.47;0.82;;;;;;;;;;6349874;28;19920;-76
2024/01/15 12:32:56;;;;;;;0.90;0.80;;;;;;;;;;6335950;28;20051;-76
2024/01/15 12:35:56;;;;;;;1.93;0.80;;;;;;;;;;6330036;28;20127;-76
2024/01/15 12:39:00;;;;;;;1.17;0.93;;;;;;;;;;6340508;28;20062;-76
2024/01/15 12:42:00;;;;;;;1.30;1.00;;;;;;;;;;6340455;28;20031;-77
2024/01/15 12:45:01;;;;;;;0.70;0.70;;;;;;;;;;6347076;28;20059;-76
2024/01/15 12:48:03;;;;;;;1.13;0.90;;;;;;;;;;6339214;28;20088;-77
2024/01/15 12:51:05;;;;;;;1.20;0.90;;;;;;;;;;6338971;28;20019;-80
2024/01/15 12:54:06;;;;;;;1.00;0.90;;;;;;;;;;6345680;28;20039;-79
2024/01/15 12:57:06;;;;;;;1.30;0.80;;;;;;;;;;6339392;28;20610;-79
2024/01/15 13:00:10;;;;;;;1.00;0.83;;;;;;;;;;6314396;28;20380;-79
2024/01/15 13:03:11;;;;;;;2.25;1.17;;;;;;;;;;6344688;28;20051;-81
2024/01/15 13:06:11;;;;;;;1.07;0.80;;;;;;;;;;6319450;28;20043;-77
2024/01/15 13:09:11;;;;;;;3.07;1.00;;;;;;;;;;6333727;28;20012;-82
2024/01/15 13:12:12;;;;;;;1.13;0.90;;;;;;;;;;6342124;28;20463;-81
2024/01/15 13:15:12;;;;;;;1.10;0.87;;;;;;;;;;6345408;28;20108;-80
2024/01/15 13:18:12;;;;;;;1.40;0.60;;;;;;;;;;6329631;28;20324;-79
2024/01/15 13:21:12;;;;;;;0.80;0.70;;;;;;;;;;6342935;28;20076;-79
2024/01/15 13:24:13;;;;;;;0.93;0.80;;;;;;;;;;6329532;28;20057;-81
2024/01/15 13:27:14;;;;;;;1.13;0.75;;;;;;;;;;6329073;28;20032;-81
2024/01/15 13:30:14;;;;;;;1.63;0.70;;;;;;;;;;6342170;28;20148;-80
2024/01/15 13:33:14;;;;;;;1.47;0.60;;;;;;;;;;6326308;28;20253;-86
2024/01/15 13:36:15;;;;;;;0.60;0.57;;;;;;;;;;6346907;28;20034;-84
2024/01/15 13:39:19;;;;;;;1.30;0.80;;;;;;;;;;6320972;28;20031;-85
2024/01/15 13:42:23;;;;;;;1.20;0.60;;;;;;;;;;6338858;28;20020;-84
2024/01/15 13:45:23;;;;;;;0.95;0.65;;;;;;;;;;6343592;28;20032;-85
2024/01/15 13:48:24;;;;;;;0.63;0.50;;;;;;;;;;6334585;28;20437;-87
2024/01/15 13:51:24;;;;;;;0.80;0.67;;;;;;;;;;6347343;28;20153;-85
2024/01/15 13:54:24;;;;;;;0.80;0.73;;;;;;;;;;6331392;28;20032;-83
2024/01/15 13:57:25;;;;;;;0.63;0.60;;;;;;;;;;6332367;28;20012;-82
2024/01/15 14:00:25;;;;;;;1.07;0.70;;;;;;;;;;6341665;28;20088;-82
2024/01/15 14:03:25;;;;;;;0.60;0.60;;;;;;;;;;6336593;28;20492;-81
2024/01/15 14:06:26;;;;;;;1.03;0.70;;;;;;;;;;6340544;28;20396;-80
2024/01/15 14:09:26;;;;;;;1.93;1.20;;;;;;;;;;6329355;28;20165;-80
2024/01/15 14:12:26;;;;;;;1.83;1.30;;;;;;;;;;6337934;28;20027;-81
2024/01/15 14:15:27;;;;;;;1.03;0.90;;;;;;;;;;6338491;28;20024;-81
2024/01/15 14:18:27;;;;;;;1.23;0.83;;;;;;;;;;6333542;28;20085;-80
2024/01/15 14:21:27;;;;;;;0.83;0.60;;;;;;;;;;6314722;28;20114;-80
2024/01/15 14:24:28;;;;;;;1.30;0.70;;;;;;;;;;6334649;28;20346;-80
2024/01/15 14:27:28;;;;;;;0.80;0.60;;;;;;;;;;6336982;28;20381;-82
2024/01/15 14:30:28;;;;;;;1.27;0.70;;;;;;;;;;6339789;28;20027;-80
2024/01/15 14:33:29;;;;;;;0.70;0.60;;;;;;;;;;6346006;28;20050;-81
2024/01/15 14:36:29;;;;;;;0.93;0.60;;;;;;;;;;6338602;28;20525;-81
2024/01/15 14:39:33;;;;;;;0.93;0.63;;;;;;;;;;6342602;28;20554;-81
2024/01/15 14:42:34;;;;;;;1.65;0.57;;;;;;;;;;6335567;28;20024;-81
2024/01/15 14:45:34;;;;;;;0.80;0.57;;;;;;;;;;6339815;28;20475;-81
2024/01/15 14:48:35;;;;;;;1.40;0.80;;;;;;;;;;6326773;28;20426;-80
2024/01/15 14:51:35;;;;;;;0.50;0.50;;;;;;;;;;6337252;28;20698;-80
2024/01/15 14:54:35;;;;;;;0.70;0.50;;;;;;;;;;6333529;28;20499;-81
2024/01/15 14:57:36;;;;;;;1.23;0.60;;;;;;;;;;6347170;28;20467;-81
2024/01/15 15:00:37;;;;;;;2.08;0.60;;;;;;;;;;6312494;28;20028;-81
2024/01/15 15:03:37;;;;;;;0.77;0.57;;;;;;;;;;6334563;28;20024;-80
2024/01/15 15:06:37;;;;;;;0.90;0.57;;;;;;;;;;6324028;28;20079;-81
2024/01/15 15:09:37;;;;;;;0.90;0.50;;;;;;;;;;6304434;28;20024;-81
2024/01/15 15:12:38;;;;;;;3.37;1.10;;;;;;;;;;6336062;28;20110;-81
2024/01/15 15:15:38;;;;;;;1.67;1.03;;;;;;;;;;6315430;28;20111;-81
2024/01/15 15:18:38;;;;;;;1.13;0.70;;;;;;;;;;6333296;28;20031;-81
2024/01/15 15:21:39;;;;;;;1.37;0.50;;;;;;;;;;6325099;28;20459;-81
2024/01/15 15:24:39;;;;;;;0.60;0.60;;;;;;;;;;6326542;28;20448;-81
2024/01/15 15:27:39;;;;;;;1.30;0.73;;;;;;;;;;6333172;28;20403;-80
2024/01/15 15:30:40;;;;;;;1.10;0.70;;;;;;;;;;6330723;28;20020;-81
2024/01/15 15:33:40;;;;;;;0.97;0.57;;;;;;;;;;6321724;28;20392;-81
2024/01/15 15:36:40;;;;;;;1.20;0.70;;;;;;;;;;6319303;28;20151;-81
2024/01/15 15:39:41;;;;;;;0.60;0.50;;;;;;;;;;6311754;28;20025;-80
2024/01/15 15:42:42;;;;;;;0.83;0.60;;;;;;;;;;6310676;28;20016;-81
2024/01/15 15:45:42;;;;;;;0.50;0.43;;;;;;;;;;6305214;28;20104;-81
2024/01/15 15:48:42;;;;;;;0.63;0.47;;;;;;;;;;6305945;28;20034;-81
2024/01/15 15:51:42;;;;;;;0.93;0.43;;;;;;;;;;6312333;28;20032;-81
2024/01/15 15:54:43;;;;;;;0.73;0.50;;;;;;;;;;6310887;28;20024;-80
2024/01/15 15:57:43;;;;;;;0.53;0.43;;;;;;;;;;6316118;28;20051;-80
2024/01/15 16:00:43;;;;;;;0.60;0.30;;;;;;;;;;6294515;28;20024;-81
2024/01/15 16:03:43;;;;;;;0.53;0.50;;;;;;;;;;6313577;28;20102;-80
2024/01/15 16:06:46;;;;;;;0.50;0.30;;;;;;;;;;6328091;28;20388;-81
2024/01/15 16:09:46;;;;;;;2.00;1.15;;;;;;;;;;6331370;28;20028;-81
2024/01/15 16:12:47;;;;;;;0.97;0.80;;;;;;;;;;6321337;28;20043;-84
2024/01/15 16:15:47;;;;;;;1.30;1.00;;;;;;;;;;6330370;28;20016;-88
2024/01/15 16:18:47;;;;;;;0.60;0.50;;;;;;;;;;6314539;28;20020;-87
2024/01/15 16:21:47;;;;;;;0.60;0.40;;;;;;;;;;6307113;28;20048;-88
2024/01/15 16:24:48;;;;;;;0.80;0.60;;;;;;;;;;6304019;28;20064;-87
2024/01/15 16:27:48;;;;;;;0.57;0.40;;;;;;;;;;6317815;28;20067;-85
2024/01/15 16:30:48;;;;;;;0.67;0.50;;;;;;;;;;6323368;28;20023;-86
2024/01/15 16:33:48;;;;;;;0.77;0.53;;;;;;;;;;6319634;28;20450;-86
2024/01/15 16:36:49;;;;;;;0.80;0.50;;;;;;;;;;6300266;28;20116;-86
2024/01/15 16:39:49;;;;;;;1.03;0.50;;;;;;;;;;6306386;28;20123;-85
2024/01/15 16:42:49;;;;;;;0.77;0.50;;;;;;;;;;6309336;28;20020;-84
2024/01/15 16:45:49;;;;;;;0.33;0.33;;;;;;;;;;6306371;28;20028;-85
2024/01/15 16:48:50;;;;;;;0.67;0.50;;;;;;;;;;6321102;28;20361;-85
2024/01/15 16:51:50;;;;;;;0.70;0.40;;;;;;;;;;6315061;28;20393;-84
2024/01/15 16:54:51;;;;;;;0.83;0.47;;;;;;;;;;6323565;28;20465;-84
2024/01/15 16:57:51;;;;;;;0.53;0.33;;;;;;;;;;6320869;28;20016;-85
2024/01/15 17:00:51;;;;;;;1.60;0.50;;;;;;;;;;6322009;28;20035;-85
2024/01/15 17:03:52;;;;;;;0.90;0.50;;;;;;;;;;6306579;28;20511;-85
2024/01/15 17:06:52;;;;;;;0.53;0.30;;;;;;;;;;6314914;28;20350;-86
2024/01/15 17:09:52;;;;;;;0.60;0.40;;;;;;;;;;6321303;28;20028;-86
2024/01/15 17:12:53;;;;;;;0.40;0.40;;;;;;;;;;6314773;28;20497;-86
2024/01/15 17:15:54;;;;;;;0.70;0.50;;;;;;;;;;6323786;28;20376;-86
2024/01/15 17:18:55;;;;;;;1.17;0.40;;;;;;;;;;6313042;28;20395;-86
2024/01/15 17:21:55;;;;;;;0.60;0.40;;;;;;;;;;6311722;28;20028;-86
2024/01/15 17:24:55;;;;;;;0.60;0.50;;;;;;;;;;6314105;28;20024;-86
2024/01/15 17:27:56;;;;;;;0.40;0.40;;;;;;;;;;6319231;28;20473;-87
2024/01/15 17:30:57;;;;;;;0.40;0.37;;;;;;;;;;6320720;28;20051;-85
2024/01/15 17:33:57;;;;;;;1.52;0.80;;;;;;;;;;6313642;28;20531;-86
2024/01/15 17:36:58;;;;;;;0.77;0.60;;;;;;;;;;6321235;28;20040;-86
2024/01/15 17:39:58;;;;;;;0.93;0.50;;;;;;;;;;6322676;28;20055;-86
2024/01/15 17:42:59;;;;;;;0.50;0.50;;;;;;;;;;6323546;28;20025;-86
2024/01/15 17:46:00;;;;;;;0.40;0.40;;;;;;;;;;6309800;28;20024;-88
2024/01/15 17:49:03;;;;;;;;;;;;;;;;;;6316500;28;20025;-86
2024/01/15 17:52:04;;;;;;;0.68;0.40;;;;;;;;;;6319963;28;19912;-86
2024/01/15 17:55:05;;;;;;;0.63;0.50;;;;;;;;;;6304533;28;20047;-81
2024/01/15 17:58:05;;;;;;;0.40;0.40;;;;;;;;;;6320799;28;20032;-79
2024/01/15 18:01:06;;;;;;;0.87;0.50;;;;;;;;;;6316973;28;20570;-81
2024/01/15 18:04:06;;;;;;;0.87;0.50;;;;;;;;;;6313274;28;20095;-81